Time;durP1;ratioP1;P1;durP2;ratioP2;P2;SDS_P1;SDS_P2;PMS_P1;PMS_P2;Temp;Humidity;BMP_temperature;BMP_pressure;BME280_temperature;BME280_humidity;BME280_pressure;Samples;Min_cycle;Max_cycle;Signal;HPM_P1;HPM_P2
2021/08/19 00:00:42;;;;;;;43.60;29.40;;;;;;;-141.23;100.00;62281.09;5011174;28;20057;-78
2021/08/19 00:03:08;;;;;;;43.83;31.67;;;;;;;-141.23;100.00;62281.09;4995127;28;20411;-78
2021/08/19 00:05:34;;;;;;;56.55;34.95;;;;;;;-141.23;100.00;62281.09;5011210;28;20038;-77
2021/08/19 00:08:00;;;;;;;53.60;34.05;;;;;;;-141.23;100.00;62281.09;4994932;28;20053;-79
2021/08/19 00:10:26;;;;;;;52.63;35.90;;;;;;;-141.23;100.00;62281.09;5011405;28;20581;-78
2021/08/19 00:12:51;;;;;;;56.58;36.95;;;;;;;-141.23;100.00;62281.09;4994840;28;20049;-77
2021/08/19 00:15:17;;;;;;;58.80;37.88;;;;;;;-141.23;100.00;62281.09;4994617;28;20422;-75
2021/08/19 00:17:43;;;;;;;54.90;36.67;;;;;;;-141.23;100.00;62281.09;4978291;28;20125;-77
2021/08/19 00:20:09;;;;;;;56.25;37.58;;;;;;;-141.23;100.00;62281.09;5011177;28;20091;-77
2021/08/19 00:22:36;;;;;;;53.13;34.78;;;;;;;-141.23;100.00;62281.09;5002187;28;20065;-77
2021/08/19 00:25:04;;;;;;;58.45;35.70;;;;;;;-141.23;100.00;62281.09;4991200;28;20093;-77
2021/08/19 00:27:30;;;;;;;51.50;34.90;;;;;;;-141.23;100.00;62281.09;5007651;28;20088;-77
2021/08/19 00:29:56;;;;;;;49.97;32.85;;;;;;;-141.23;100.00;62281.09;5007791;28;20070;-77
2021/08/19 00:32:23;;;;;;;42.20;29.02;;;;;;;-141.23;100.00;62281.09;4975005;28;20121;-77
2021/08/19 00:34:48;;;;;;;44.92;29.65;;;;;;;-141.23;100.00;62281.09;4990321;28;20057;-77
2021/08/19 00:37:14;;;;;;;38.08;29.10;;;;;;;-141.23;100.00;62281.09;4990935;28;20050;-76
2021/08/19 00:39:41;;;;;;;36.10;27.50;;;;;;;-141.23;100.00;62281.09;5007016;28;20039;-75
2021/08/19 00:42:07;;;;;;;31.15;23.92;;;;;;;-141.23;100.00;62281.09;5007381;28;20046;-74
2021/08/19 00:44:33;;;;;;;36.67;22.80;;;;;;;-141.23;100.00;62281.09;4989738;28;20091;-74
2021/08/19 00:47:00;;;;;;;32.33;22.65;;;;;;;-141.23;100.00;62281.09;4972886;28;20137;-75
2021/08/19 00:49:26;;;;;;;28.60;20.30;;;;;;;-141.23;100.00;62281.09;4988686;28;20042;-74
2021/08/19 00:51:53;;;;;;;28.42;20.10;;;;;;;-141.23;100.00;62281.09;4988172;28;20041;-75
2021/08/19 00:54:27;;;;;;;23.08;18.60;;;;;;;-141.23;100.00;62281.09;5004801;28;20053;-75
2021/08/19 00:56:55;;;;;;;28.17;19.40;;;;;;;-141.23;100.00;62281.09;4989666;28;20048;-76
2021/08/19 00:59:24;;;;;;;19.98;16.63;;;;;;;-141.23;100.00;62281.09;4972114;28;20050;-76
2021/08/19 01:01:54;;;;;;;27.33;16.42;;;;;;;-141.23;100.00;62281.09;4989413;28;20088;-76
2021/08/19 01:04:20;;;;;;;24.90;17.10;;;;;;;-141.23;100.00;62281.09;5006921;28;20127;-77
2021/08/19 01:06:46;;;;;;;24.33;16.30;;;;;;;-141.23;100.00;62281.09;4974341;28;20149;-76
2021/08/19 01:09:12;;;;;;;24.35;17.83;;;;;;;-141.23;100.00;62281.09;4990374;28;20049;-75
2021/08/19 01:11:42;;;;;;;24.98;17.75;;;;;;;-141.23;100.00;62281.09;4991240;28;20042;-75
2021/08/19 01:14:15;;;;;;;23.55;18.15;;;;;;;-141.23;100.00;62281.09;4990714;28;20046;-76
2021/08/19 01:16:47;;;;;;;19.10;15.40;;;;;;;-141.23;100.00;62281.09;5006691;28;20051;-76
2021/08/19 01:19:18;;;;;;;19.58;15.82;;;;;;;-141.23;100.00;62281.09;4990449;28;20569;-76
2021/08/19 01:21:46;;;;;;;28.42;16.98;;;;;;;-141.23;100.00;62281.09;5013940;28;20511;-76
2021/08/19 01:24:12;;;;;;;17.90;14.45;;;;;;;-141.23;100.00;62281.09;4993818;28;20132;-77
2021/08/19 01:26:39;;;;;;;25.27;15.98;;;;;;;-141.23;100.00;62281.09;5009822;28;20042;-77
2021/08/19 01:29:05;;;;;;;24.35;16.25;;;;;;;-141.23;100.00;62281.09;5009908;28;20477;-76
2021/08/19 01:31:32;;;;;;;26.40;17.25;;;;;;;-141.23;100.00;62281.09;5010004;28;20108;-77
2021/08/19 01:33:59;;;;;;;26.33;18.70;;;;;;;-141.23;100.00;62281.09;5010138;28;20046;-75
2021/08/19 01:36:25;;;;;;;23.80;18.23;;;;;;;-141.23;100.00;62281.09;5026282;28;20054;-75
2021/08/19 01:38:51;;;;;;;26.35;19.83;;;;;;;-141.23;100.00;62281.09;4993175;28;20553;-76
2021/08/19 01:41:18;;;;;;;23.83;18.08;;;;;;;-141.23;100.00;62281.09;5009721;28;20096;-74
2021/08/19 01:43:46;;;;;;;23.63;18.27;;;;;;;-141.23;100.00;62281.09;5010900;28;20046;-74
2021/08/19 01:46:14;;;;;;;25.30;19.15;;;;;;;-141.23;100.00;62281.09;4995651;28;20045;-74
2021/08/19 01:48:44;;;;;;;26.75;18.52;;;;;;;-141.23;100.00;62281.09;5013523;28;20042;-75
2021/08/19 01:51:10;;;;;;;28.02;19.23;;;;;;;-141.23;100.00;62281.09;5015025;28;20073;-75
2021/08/19 01:53:37;;;;;;;25.83;18.92;;;;;;;-141.23;100.00;62281.09;4997515;28;20053;-75
2021/08/19 01:56:03;;;;;;;29.13;19.67;;;;;;;-141.23;100.00;62281.09;4997429;28;20038;-78
2021/08/19 01:58:29;;;;;;;24.85;19.08;;;;;;;-141.23;100.00;62281.09;5013792;28;20053;-76
2021/08/19 02:00:55;;;;;;;25.55;18.67;;;;;;;-141.23;100.00;62281.09;5013533;28;20038;-75
2021/08/19 02:03:21;;;;;;;26.75;19.63;;;;;;;-141.23;100.00;62281.09;5013749;28;20100;-75
2021/08/19 02:05:48;;;;;;;29.42;20.38;;;;;;;-141.23;100.00;62281.09;4997003;28;20406;-75
2021/08/19 02:08:16;;;;;;;24.38;19.13;;;;;;;-141.23;100.00;62281.09;5013376;28;20532;-76
2021/08/19 02:10:43;;;;;;;30.42;21.52;;;;;;;-141.23;100.00;62281.09;5013202;28;20041;-77
2021/08/19 02:13:09;;;;;;;33.00;22.17;;;;;;;-141.23;100.00;62281.09;5029824;28;20041;-76
2021/08/19 02:15:35;;;;;;;30.30;20.90;;;;;;;-141.23;100.00;62281.09;4996813;28;20054;-76
2021/08/19 02:18:00;;;;;;;27.88;21.27;;;;;;;-141.23;100.00;62281.09;4980908;28;20403;-76
2021/08/19 02:20:26;;;;;;;30.88;22.23;;;;;;;-141.23;100.00;62281.09;4980814;28;20042;-77
2021/08/19 02:22:57;;;;;;;29.83;21.95;;;;;;;-141.23;100.00;62281.09;4996583;28;20092;-77
2021/08/19 02:25:23;;;;;;;35.80;23.77;;;;;;;-141.23;100.00;62281.09;5029170;28;20109;-75
2021/08/19 02:27:49;;;;;;;28.50;19.90;;;;;;;-141.23;100.00;62281.09;4994155;28;20053;-75
2021/08/19 02:30:15;;;;;;;28.35;21.77;;;;;;;-141.23;100.00;62281.09;4978375;28;20095;-75
2021/08/19 02:32:41;;;;;;;28.65;20.35;;;;;;;-141.23;100.00;62281.09;4961857;28;20402;-75
2021/08/19 02:35:07;;;;;;;30.75;21.50;;;;;;;-141.23;100.00;62281.09;4994286;28;20490;-74
2021/08/19 02:37:33;;;;;;;29.42;20.75;;;;;;;-141.23;100.00;62281.09;5011812;28;20046;-74
2021/08/19 02:39:59;;;;;;;31.42;21.55;;;;;;;-141.23;100.00;62281.09;4996436;28;20041;-74
2021/08/19 02:42:25;;;;;;;27.77;21.23;;;;;;;-141.23;100.00;62281.09;4996304;28;20577;-74
2021/08/19 02:44:51;;;;;;;30.73;22.10;;;;;;;-141.23;100.00;62281.09;4979999;28;20530;-75
2021/08/19 02:47:17;;;;;;;31.23;22.40;;;;;;;-141.23;100.00;62281.09;5012705;28;20045;-75
2021/08/19 02:49:42;;;;;;;32.70;22.98;;;;;;;-141.23;100.00;62281.09;4996211;28;20056;-75
2021/08/19 02:52:08;;;;;;;31.90;21.88;;;;;;;-141.23;100.00;62281.09;4964041;28;20042;-74
2021/08/19 02:54:34;;;;;;;32.33;20.45;;;;;;;-141.23;100.00;62281.09;4996433;28;20200;-74
2021/08/19 02:57:00;;;;;;;31.00;20.95;;;;;;;-141.23;100.00;62281.09;4995052;28;20038;-74
2021/08/19 02:59:25;;;;;;;27.92;20.13;;;;;;;-141.23;100.00;62281.09;4996057;28;20069;-74
2021/08/19 03:01:51;;;;;;;25.65;20.77;;;;;;;-141.23;100.00;62281.09;4996142;28;20084;-75
2021/08/19 03:04:17;;;;;;;27.58;20.77;;;;;;;-141.23;100.00;62281.09;4979727;28;20038;-75
2021/08/19 03:06:43;;;;;;;31.80;20.80;;;;;;;-141.23;100.00;62281.09;4979589;28;20042;-75
2021/08/19 03:09:09;;;;;;;35.83;24.50;;;;;;;-141.23;100.00;62281.09;4995789;28;20046;-75
2021/08/19 03:11:35;;;;;;;27.30;19.17;;;;;;;-141.23;100.00;62281.09;4979958;28;20045;-75
2021/08/19 03:14:01;;;;;;;27.77;20.10;;;;;;;-141.23;100.00;62281.09;4995790;28;20060;-74
2021/08/19 03:16:27;;;;;;;30.70;20.13;;;;;;;-141.23;100.00;62281.09;5012294;28;20264;-75
2021/08/19 03:18:52;;;;;;;26.35;18.65;;;;;;;-141.23;100.00;62281.09;5011971;28;20503;-75
2021/08/19 03:21:20;;;;;;;28.13;20.15;;;;;;;-141.23;100.00;62281.09;4979427;28;20468;-75
2021/08/19 03:23:47;;;;;;;43.08;23.75;;;;;;;-141.23;100.00;62281.09;5011660;28;20045;-74
2021/08/19 03:26:15;;;;;;;39.97;23.13;;;;;;;-141.23;100.00;62281.09;5011995;28;20042;-75
2021/08/19 03:28:42;;;;;;;48.13;25.35;;;;;;;-141.23;100.00;62281.09;4979498;28;20042;-75
2021/08/19 03:31:08;;;;;;;38.92;23.35;;;;;;;-141.23;100.00;62281.09;5012801;28;20384;-77
2021/08/19 03:33:33;;;;;;;35.53;21.90;;;;;;;-141.23;100.00;62281.09;4995598;28;20057;-74
2021/08/19 03:35:59;;;;;;;43.83;22.70;;;;;;;-141.23;100.00;62281.09;4979152;28;20046;-75
2021/08/19 03:38:26;;;;;;;35.35;20.83;;;;;;;-141.23;100.00;62281.09;4995222;28;20046;-74
2021/08/19 03:40:53;;;;;;;50.63;23.70;;;;;;;-141.23;100.00;62281.09;5011491;28;20096;-75
2021/08/19 03:43:20;;;;;;;30.15;18.42;;;;;;;-141.23;100.00;62281.09;4979251;28;20503;-73
2021/08/19 03:45:47;;;;;;;20.23;15.35;;;;;;;-141.23;100.00;62281.09;4995208;28;20046;-74
2021/08/19 03:48:14;;;;;;;22.17;15.55;;;;;;;-141.23;100.00;62281.09;5011575;28;20058;-75
2021/08/19 03:50:39;;;;;;;19.40;16.27;;;;;;;-141.23;100.00;62281.09;5011297;28;20049;-75
2021/08/19 03:53:05;;;;;;;25.10;16.60;;;;;;;-141.23;100.00;62281.09;4995269;28;20403;-75
2021/08/19 03:55:31;;;;;;;21.30;16.85;;;;;;;-141.23;100.00;62281.09;4995011;28;20037;-75
2021/08/19 03:57:57;;;;;;;23.90;16.65;;;;;;;-141.23;100.00;62281.09;4994818;28;20052;-75
2021/08/19 04:00:24;;;;;;;26.23;17.55;;;;;;;-141.23;100.00;62281.09;4995122;28;20073;-74
2021/08/19 04:02:51;;;;;;;20.65;15.63;;;;;;;-141.23;100.00;62281.09;4994782;28;20507;-74
2021/08/19 04:05:17;;;;;;;21.55;15.82;;;;;;;-141.23;100.00;62281.09;4978763;28;20046;-74
2021/08/19 04:07:43;;;;;;;22.05;16.33;;;;;;;-141.23;100.00;62281.09;4978404;28;20042;-75
2021/08/19 04:10:10;;;;;;;26.02;16.98;;;;;;;-141.23;100.00;62281.09;4978783;28;20037;-76
2021/08/19 04:12:36;;;;;;;28.33;17.17;;;;;;;-141.23;100.00;62281.09;4994922;28;20042;-75
2021/08/19 04:15:04;;;;;;;24.20;18.30;;;;;;;-141.23;100.00;62281.09;5011167;28;20444;-75
2021/08/19 04:17:30;;;;;;;25.50;18.13;;;;;;;-141.23;100.00;62281.09;4994401;28;20407;-75
2021/08/19 04:19:56;;;;;;;24.70;17.35;;;;;;;-141.23;100.00;62281.09;4978430;28;20038;-68
2021/08/19 04:22:22;;;;;;;24.65;17.95;;;;;;;-141.23;100.00;62281.09;5010821;28;20561;-68
2021/08/19 04:24:48;;;;;;;23.63;16.95;;;;;;;-141.23;100.00;62281.09;5010616;28;20049;-69
2021/08/19 04:27:13;;;;;;;18.40;14.93;;;;;;;-141.23;100.00;62281.09;5011963;28;20380;-69
2021/08/19 04:29:39;;;;;;;19.50;14.20;;;;;;;-141.23;100.00;62281.09;5010729;28;20067;-70
2021/08/19 04:32:05;;;;;;;20.88;13.55;;;;;;;-141.23;100.00;62281.09;4994233;28;20049;-70
2021/08/19 04:34:31;;;;;;;18.70;13.48;;;;;;;-141.23;100.00;62281.09;4994378;28;20040;-70
2021/08/19 04:36:57;;;;;;;21.40;12.98;;;;;;;-141.23;100.00;62281.09;5011610;28;20038;-70
2021/08/19 04:39:23;;;;;;;18.88;13.30;;;;;;;-141.23;100.00;62281.09;5010338;28;20052;-70
2021/08/19 04:41:51;;;;;;;21.15;12.80;;;;;;;-141.23;100.00;62281.09;5010486;28;20049;-72
2021/08/19 04:44:17;;;;;;;19.17;12.73;;;;;;;-141.23;100.00;62281.09;4977989;28;20092;-69
2021/08/19 04:46:43;;;;;;;18.65;13.18;;;;;;;-141.23;100.00;62281.09;5010342;28;20038;-69
2021/08/19 04:49:08;;;;;;;18.10;13.05;;;;;;;-141.23;100.00;62281.09;5010803;28;20049;-69
2021/08/19 04:51:35;;;;;;;17.65;13.18;;;;;;;-141.23;100.00;62281.09;4993872;28;20486;-70
2021/08/19 04:54:02;;;;;;;17.05;12.07;;;;;;;-141.23;100.00;62281.09;5010269;28;20049;-69
2021/08/19 04:56:30;;;;;;;20.02;12.90;;;;;;;-141.23;100.00;62281.09;5010119;28;20038;-69
2021/08/19 04:58:57;;;;;;;17.23;12.55;;;;;;;-141.23;100.00;62281.09;4973972;28;20052;-69
2021/08/19 05:01:23;;;;;;;15.13;12.00;;;;;;;-141.23;100.00;62281.09;5005111;28;20046;-68
2021/08/19 05:03:48;;;;;;;17.38;11.55;;;;;;;-141.23;100.00;62281.09;4988688;28;20034;-69
2021/08/19 05:06:14;;;;;;;17.67;12.15;;;;;;;-141.23;100.00;62281.09;4973004;28;20577;-71
2021/08/19 05:08:40;;;;;;;17.23;12.25;;;;;;;-141.23;100.00;62281.09;4973170;28;20038;-68
2021/08/19 05:11:06;;;;;;;14.25;11.27;;;;;;;-141.23;100.00;62281.09;4989523;28;20510;-68
2021/08/19 05:13:32;;;;;;;15.00;12.00;;;;;;;-141.23;100.00;62281.09;4988951;28;20034;-68
2021/08/19 05:15:58;;;;;;;20.48;13.02;;;;;;;-141.23;100.00;62281.09;4989422;28;20495;-69
2021/08/19 05:18:25;;;;;;;21.60;13.82;;;;;;;-141.23;100.00;62281.09;4973303;28;20038;-69
2021/08/19 05:20:51;;;;;;;18.45;12.85;;;;;;;-141.23;100.00;62281.09;4988712;28;20073;-68
2021/08/19 05:23:17;;;;;;;17.33;13.40;;;;;;;-141.23;100.00;62281.09;4992684;28;20565;-70
2021/08/19 05:25:42;;;;;;;16.42;12.60;;;;;;;-141.23;100.00;62281.09;5008695;28;20046;-70
2021/08/19 05:28:08;;;;;;;16.05;11.88;;;;;;;-141.23;100.00;62281.09;5009434;28;20046;-70
2021/08/19 05:30:34;;;;;;;16.10;12.75;;;;;;;-141.23;100.00;62281.09;5009088;28;20042;-70
2021/08/19 05:33:00;;;;;;;15.68;12.25;;;;;;;-141.23;100.00;62281.09;5008759;28;20038;-69
2021/08/19 05:35:25;;;;;;;16.45;13.20;;;;;;;-141.23;100.00;62281.09;4992481;28;20045;-69
2021/08/19 05:37:51;;;;;;;23.08;12.93;;;;;;;-141.23;100.00;62281.09;5009119;28;20042;-70
2021/08/19 05:40:17;;;;;;;16.25;12.43;;;;;;;-141.23;100.00;62281.09;5009161;28;20557;-69
2021/08/19 05:42:43;;;;;;;14.43;12.30;;;;;;;-141.23;100.00;62281.09;5009466;28;20045;-69
2021/08/19 05:45:09;;;;;;;20.52;11.90;;;;;;;-141.23;100.00;62281.09;5009203;28;20140;-68
2021/08/19 05:47:34;;;;;;;17.27;13.45;;;;;;;-141.23;100.00;62281.09;5008649;28;20042;-68
2021/08/19 05:50:00;;;;;;;15.95;12.75;;;;;;;-141.23;100.00;62281.09;4992788;28;20045;-72
2021/08/19 05:52:26;;;;;;;18.20;13.43;;;;;;;-141.23;100.00;62281.09;4992277;28;20060;-74
2021/08/19 05:54:52;;;;;;;19.42;12.88;;;;;;;-141.23;100.00;62281.09;5008347;28;20499;-76
2021/08/19 05:57:18;;;;;;;17.55;12.68;;;;;;;-141.23;100.00;62281.09;5023452;28;20498;-75
2021/08/19 05:59:44;;;;;;;16.67;12.65;;;;;;;-141.23;100.00;62281.09;5008188;28;20466;-74
2021/08/19 06:02:09;;;;;;;17.00;13.18;;;;;;;-141.23;100.00;62281.09;5007230;28;20574;-75
2021/08/19 06:04:37;;;;;;;18.45;11.77;;;;;;;-141.23;100.00;62281.09;4989345;28;20057;-75
2021/08/19 06:07:03;;;;;;;16.35;11.50;;;;;;;-141.23;100.00;62281.09;5007329;28;20079;-76
2021/08/19 06:09:29;;;;;;;17.38;10.93;;;;;;;-141.23;100.00;62281.09;5007471;28;20042;-76
2021/08/19 06:11:55;;;;;;;18.60;11.20;;;;;;;-141.23;100.00;62281.09;4991971;28;20100;-75
2021/08/19 06:14:20;;;;;;;13.40;10.90;;;;;;;-141.23;100.00;62281.09;4992105;28;20041;-76
2021/08/19 06:16:48;;;;;;;15.38;10.85;;;;;;;-141.23;100.00;62281.09;4976660;28;20048;-75
2021/08/19 06:19:14;;;;;;;13.38;10.95;;;;;;;-141.23;100.00;62281.09;4976669;28;20054;-75
2021/08/19 06:21:40;;;;;;;17.27;12.98;;;;;;;-141.23;100.00;62281.09;5025145;28;20857;-75
2021/08/19 06:24:06;;;;;;;17.23;13.10;;;;;;;-141.23;100.00;62281.09;4992761;28;20387;-75
2021/08/19 06:26:32;;;;;;;18.63;14.25;;;;;;;-141.23;100.00;62281.09;5008706;28;20057;-75
2021/08/19 06:28:58;;;;;;;16.35;13.40;;;;;;;-141.23;100.00;62281.09;5008843;28;20042;-75
2021/08/19 06:31:24;;;;;;;16.25;12.77;;;;;;;-141.23;100.00;62281.09;5009277;28;20576;-75
2021/08/19 06:33:49;;;;;;;13.93;12.50;;;;;;;-141.23;100.00;62281.09;5028324;28;20096;-75
2021/08/19 06:36:15;;;;;;;19.00;13.73;;;;;;;-141.23;100.00;62281.09;4995787;28;20038;-75
2021/08/19 06:38:41;;;;;;;14.25;11.90;;;;;;;-141.23;100.00;62281.09;5012051;28;20107;-75
2021/08/19 06:41:07;;;;;;;19.33;13.75;;;;;;;-141.23;100.00;62281.09;5012530;28;20054;-76
2021/08/19 06:43:33;;;;;;;19.25;12.95;;;;;;;-141.23;100.00;62281.09;4995857;28;20069;-74
2021/08/19 06:45:59;;;;;;;14.40;12.70;;;;;;;-141.23;100.00;62281.09;4995984;28;20041;-75
2021/08/19 06:48:24;;;;;;;17.30;13.50;;;;;;;-141.23;100.00;62281.09;4995685;28;20085;-75
2021/08/19 06:50:50;;;;;;;15.88;13.32;;;;;;;-141.23;100.00;62281.09;4995986;28;20045;-75
2021/08/19 06:53:16;;;;;;;17.20;13.10;;;;;;;-141.23;100.00;62281.09;5012502;28;20038;-74
2021/08/19 06:55:42;;;;;;;14.18;11.18;;;;;;;-141.23;100.00;62281.09;5011971;28;20113;-75
2021/08/19 06:58:08;;;;;;;12.05;10.07;;;;;;;-141.23;100.00;62281.09;5028372;28;20234;-77
2021/08/19 07:00:33;;;;;;;11.18;9.43;;;;;;;-141.23;100.00;62281.09;5011584;28;20076;-76
2021/08/19 07:02:59;;;;;;;16.58;11.35;;;;;;;-141.23;100.00;62281.09;5011802;28;20413;-75
2021/08/19 07:05:25;;;;;;;15.27;11.63;;;;;;;-141.23;100.00;62281.09;4995401;28;20045;-76
2021/08/19 07:07:57;;;;;;;16.70;11.80;;;;;;;-141.23;100.00;62281.09;5011810;28;20514;-76
2021/08/19 07:10:23;;;;;;;14.10;10.60;;;;;;;-141.23;100.00;62281.09;5011919;28;20084;-76
2021/08/19 07:12:49;;;;;;;14.60;9.88;;;;;;;-141.23;100.00;62281.09;5012693;28;20172;-77
2021/08/19 07:15:15;;;;;;;15.85;8.98;;;;;;;-141.23;100.00;62281.09;5012246;28;20060;-77
2021/08/19 07:17:40;;;;;;;15.32;9.38;;;;;;;-141.23;100.00;62281.09;4995054;28;20458;-77
2021/08/19 07:20:07;;;;;;;11.48;9.95;;;;;;;-141.23;100.00;62281.09;5011678;28;20070;-76
2021/08/19 07:22:33;;;;;;;16.83;10.63;;;;;;;-141.23;100.00;62281.09;4995409;28;20136;-77
2021/08/19 07:24:58;;;;;;;17.25;10.98;;;;;;;-141.23;100.00;62281.09;5011632;28;20459;-77
2021/08/19 07:27:24;;;;;;;15.07;11.32;;;;;;;-141.23;100.00;62281.09;5011349;28;20053;-77
2021/08/19 07:29:50;;;;;;;14.25;10.85;;;;;;;-141.23;100.00;62281.09;4995169;28;20042;-77
2021/08/19 07:32:19;;;;;;;14.80;10.57;;;;;;;-141.23;100.00;62281.09;5011752;28;20486;-74
2021/08/19 07:34:48;;;;;;;15.27;11.15;;;;;;;-141.23;100.00;62281.09;5012426;28;20118;-76
2021/08/19 07:37:15;;;;;;;13.70;9.93;;;;;;;-141.23;100.00;62281.09;5011453;28;20092;-69
2021/08/19 07:39:41;;;;;;;12.30;9.27;;;;;;;-141.23;100.00;62281.09;5010833;28;20499;-69
2021/08/19 07:42:06;;;;;;;11.10;9.23;;;;;;;-141.23;100.00;62281.09;5011134;28;20052;-71
2021/08/19 07:44:32;;;;;;;16.88;10.00;;;;;;;-141.23;100.00;62281.09;5010118;28;20566;-72
2021/08/19 07:46:58;;;;;;;11.00;9.02;;;;;;;-141.23;100.00;62281.09;5011854;28;20407;-72
2021/08/19 07:49:24;;;;;;;10.82;7.93;;;;;;;-141.23;100.00;62281.09;5010857;28;20112;-70
2021/08/19 07:51:49;;;;;;;11.18;8.63;;;;;;;-141.23;100.00;62281.09;5010811;28;20735;-70
2021/08/19 07:54:17;;;;;;;13.77;8.55;;;;;;;-141.23;100.00;62281.09;5027841;28;20096;-70
2021/08/19 07:56:43;;;;;;;13.75;8.10;;;;;;;-141.23;100.00;62281.09;5010956;28;20064;-69
2021/08/19 07:59:10;;;;;;;17.50;13.35;;;;;;;-141.23;100.00;62281.09;4994608;28;20077;-69
2021/08/19 08:01:36;;;;;;;10.07;6.47;;;;;;;-141.23;100.00;62281.09;5010103;28;20056;-68
2021/08/19 08:04:03;;;;;;;10.55;7.80;;;;;;;-141.23;100.00;62281.09;5011717;28;20041;-70
2021/08/19 08:06:30;;;;;;;8.45;7.00;;;;;;;-141.23;100.00;62281.09;5011264;28;20044;-73
2021/08/19 08:08:55;;;;;;;9.98;7.22;;;;;;;-141.23;100.00;62281.09;4999245;28;20037;-74
2021/08/19 08:11:21;;;;;;;10.32;6.85;;;;;;;-141.23;100.00;62281.09;4978164;28;20415;-71
2021/08/19 08:13:47;;;;;;;9.40;7.30;;;;;;;-141.23;100.00;62281.09;5027269;28;20522;-71
2021/08/19 08:16:13;;;;;;;8.95;6.82;;;;;;;-141.23;100.00;62281.09;5010508;28;20499;-71
2021/08/19 08:18:39;;;;;;;11.35;7.63;;;;;;;-141.23;100.00;62281.09;4993932;28;20045;-73
2021/08/19 08:21:05;;;;;;;8.90;6.80;;;;;;;-141.23;100.00;62281.09;5011714;28;20046;-72
2021/08/19 08:23:36;;;;;;;9.32;6.20;;;;;;;-141.23;100.00;62281.09;5011443;28;20392;-73
2021/08/19 08:26:02;;;;;;;8.77;6.25;;;;;;;-141.23;100.00;62281.09;5010547;28;20123;-73
2021/08/19 08:28:30;;;;;;;9.88;6.22;;;;;;;-141.23;100.00;62281.09;4973671;28;20503;-73
2021/08/19 08:30:57;;;;;;;12.02;7.88;;;;;;;-141.23;100.00;62281.09;4990606;28;20412;-74
2021/08/19 08:33:23;;;;;;;7.68;6.85;;;;;;;-141.23;100.00;62281.09;4991604;28;20046;-72
2021/08/19 08:35:50;;;;;;;9.35;5.57;;;;;;;-141.23;100.00;62281.09;4990702;28;20034;-73
2021/08/19 08:38:19;;;;;;;12.23;5.80;;;;;;;-141.23;100.00;62281.09;4990810;28;20051;-72
2021/08/19 08:40:48;;;;;;;10.18;6.72;;;;;;;-141.23;100.00;62281.09;4990678;28;20042;-74
2021/08/19 08:43:16;;;;;;;12.35;7.70;;;;;;;-141.23;100.00;62281.09;4990853;28;20046;-72
2021/08/19 08:45:45;;;;;;;9.20;7.20;;;;;;;-141.23;100.00;62281.09;4995674;28;20125;-72
2021/08/19 08:48:16;;;;;;;11.82;7.75;;;;;;;-141.23;100.00;62281.09;4998943;28;20454;-73
2021/08/19 08:50:46;;;;;;;11.65;7.63;;;;;;;-141.23;100.00;62281.09;4993725;28;20046;-70
2021/08/19 08:53:13;;;;;;;14.20;8.20;;;;;;;-141.23;100.00;62281.09;5011639;28;20480;-73
2021/08/19 08:55:39;;;;;;;10.00;7.30;;;;;;;-141.23;100.00;62281.09;5001066;28;20052;-71
2021/08/19 08:58:08;;;;;;;10.85;7.95;;;;;;;-141.23;100.00;62281.09;4986479;28;20054;-70
2021/08/19 09:00:35;;;;;;;13.70;7.40;;;;;;;-141.23;100.00;62281.09;4978681;28;20522;-70
2021/08/19 09:03:00;;;;;;;16.42;7.80;;;;;;;-141.23;100.00;62281.09;5001380;28;20044;-66
2021/08/19 09:05:29;;;;;;;11.15;7.70;;;;;;;-141.23;100.00;62281.09;4990838;28;20049;-66
2021/08/19 09:07:59;;;;;;;18.20;8.20;;;;;;;-141.23;100.00;62281.09;5010620;28;20560;-66
2021/08/19 09:10:31;;;;;;;15.57;10.35;;;;;;;-141.23;100.00;62281.09;5010687;28;20041;-67
2021/08/19 09:13:05;;;;;;;11.95;8.13;;;;;;;-141.23;100.00;62281.09;5011277;28;20096;-66
2021/08/19 09:15:31;;;;;;;18.40;8.13;;;;;;;-141.23;100.00;62281.09;5028913;28;20045;-65
2021/08/19 09:17:57;;;;;;;13.60;8.45;;;;;;;-141.23;100.00;62281.09;4999315;28;20041;-66
2021/08/19 09:20:36;;;;;;;19.83;7.97;;;;;;;-141.23;100.00;62281.09;5018897;28;20559;-69
2021/08/19 09:23:07;;;;;;;14.07;8.15;;;;;;;-141.23;100.00;62281.09;5002532;28;20042;-66
2021/08/19 09:25:44;;;;;;;14.57;8.32;;;;;;;-141.23;100.00;62281.09;5020708;28;20132;-63
2021/08/19 09:28:26;;;;;;;16.30;8.35;;;;;;;-141.23;100.00;62281.09;4991236;28;20087;-67
2021/08/19 09:31:11;;;;;;;11.73;7.60;;;;;;;-141.23;100.00;62281.09;5000428;28;20068;-78
2021/08/19 09:33:39;;;;;;;13.88;7.97;;;;;;;-141.23;100.00;62281.09;4985520;28;20526;-73
2021/08/19 09:36:06;;;;;;;13.55;7.85;;;;;;;-141.23;100.00;62281.09;5009014;28;20053;-72
2021/08/19 09:38:41;;;;;;;12.55;7.68;;;;;;;-141.23;100.00;62281.09;4985109;28;20483;-75
2021/08/19 09:41:17;;;;;;;12.40;7.88;;;;;;;-141.23;100.00;62281.09;4966817;28;20103;-72
2021/08/19 09:43:50;;;;;;;13.68;7.40;;;;;;;-141.23;100.00;62281.09;5017588;28;20073;-71
2021/08/19 09:46:34;;;;;;;12.15;7.75;;;;;;;-141.23;100.00;62281.09;5004707;28;20045;-71
2021/08/19 09:49:19;;;;;;;15.93;8.07;;;;;;;-141.23;100.00;62281.09;4993219;28;20049;-72
2021/08/19 09:52:03;;;;;;;13.07;6.82;;;;;;;-141.23;100.00;62281.09;5025919;28;20050;-70
2021/08/19 09:54:31;;;;;;;8.13;6.60;;;;;;;-141.23;100.00;62281.09;5026169;28;20049;-72
2021/08/19 09:56:58;;;;;;;14.15;7.38;;;;;;;-141.23;100.00;62281.09;5009932;28;20040;-76
2021/08/19 09:59:36;;;;;;;17.33;7.72;;;;;;;-141.23;100.00;62281.09;5009738;28;20085;-78
2021/08/19 10:02:03;;;;;;;9.20;6.60;;;;;;;-141.23;100.00;62281.09;5027925;28;20045;-81
2021/08/19 10:04:30;;;;;;;18.63;8.50;;;;;;;-141.23;100.00;62281.09;5011373;28;20045;-76
2021/08/19 10:06:59;;;;;;;14.57;7.85;;;;;;;-141.23;100.00;62281.09;4998016;28;20037;-77
2021/08/19 10:09:25;;;;;;;16.27;7.38;;;;;;;-141.23;100.00;62281.09;5005700;28;20430;-77
2021/08/19 10:11:54;;;;;;;15.38;7.70;;;;;;;-141.23;100.00;62281.09;5004620;28;20125;-77
2021/08/19 10:14:21;;;;;;;9.05;6.75;;;;;;;-141.23;100.00;62281.09;4987751;28;20521;-74
2021/08/19 10:16:47;;;;;;;11.85;6.60;;;;;;;-141.23;100.00;62281.09;5016944;28;20038;-75
2021/08/19 10:19:22;;;;;;;9.73;6.78;;;;;;;-141.23;100.00;62281.09;4979895;28;20508;-74
2021/08/19 10:21:52;;;;;;;12.70;6.53;;;;;;;-141.23;100.00;62281.09;4995730;28;20058;-76
2021/08/19 10:24:43;;;;;;;7.72;6.30;;;;;;;-141.23;100.00;62281.09;4996543;28;20132;-74
2021/08/19 10:27:20;;;;;;;9.15;6.18;;;;;;;-141.23;100.00;62281.09;5011516;28;20053;-75
2021/08/19 10:29:52;;;;;;;10.80;6.22;;;;;;;-141.23;100.00;62281.09;5011999;28;20080;-74
2021/08/19 10:32:23;;;;;;;9.27;6.28;;;;;;;-141.23;100.00;62281.09;4979407;28;20050;-74
2021/08/19 10:35:05;;;;;;;10.98;6.50;;;;;;;-141.23;100.00;62281.09;4995999;28;20045;-78
2021/08/19 10:37:46;;;;;;;8.90;5.80;;;;;;;-141.23;100.00;62281.09;4979422;28;20041;-74
2021/08/19 10:40:21;;;;;;;12.18;6.15;;;;;;;-141.23;100.00;62281.09;4995621;28;20046;-77
2021/08/19 10:42:51;;;;;;;6.68;5.22;;;;;;;-141.23;100.00;62281.09;4997367;28;20056;-70
2021/08/19 10:45:26;;;;;;;10.90;6.33;;;;;;;-141.23;100.00;62281.09;4983272;28;20038;-70
2021/08/19 10:48:22;;;;;;;11.55;5.75;;;;;;;-141.23;100.00;62281.09;4971489;28;20540;-69
2021/08/19 10:50:48;;;;;;;8.60;5.75;;;;;;;-141.23;100.00;62281.09;4956242;28;20047;-69
2021/08/19 10:53:27;;;;;;;8.48;5.88;;;;;;;-141.23;100.00;62281.09;4954351;28;20047;-69
2021/08/19 10:55:55;;;;;;;10.52;6.32;;;;;;;-141.23;100.00;62281.09;4938934;28;20104;-72
2021/08/19 10:58:26;;;;;;;15.20;6.35;;;;;;;-141.23;100.00;62281.09;4953518;28;20054;-71